Airfield :
LOGIN :

Register | Disclaimer

   EN    FR    IT 

 










Legend :    VFR   Marginal VFR   IFR   Intensive IFR   Very Intensive IFR
Visi :
Ceiling :
>= 8 km
>= 3000ft
5 to 8 km
1000 to 3000 ft
1500m to 5 km
500 to 1000 ft
800 to 1500m
200 to 500 ft
< 800m
< 200 ft
Symbols :   Thunderstorms  Fog  Heavy snow  Heavy precipitations  Wind > 20 kt
SIGMETs :     Misc.  Thunderstorms  Icing  Turbulence  Mountain Waves  Volcanic Ashes






- Airport Elevation : 600 ft
- IATA code : VIE


LOWW - Vienna Schwechat

CURRENT METAR :
  • 231020Z VRB01KT 4900 BR FEW004 OVC006 10/08 Q1017 NOSIG

EXPIRED METARs :
  • 230950Z VRB02KT 4500 BR FEW003 BKN005 09/08 Q1018 NOSIG
  • 230920Z VRB01KT 3600 BR FEW001 SCT003 BKN006 09/08 Q1018 TEMPO BKN004
  • 230850Z VRB02KT 2000 0900S R16/1500U R29/P1500U BCFG VV002 08/08 Q1018 TEMPO 3000 NSW BKN005
  • 230820Z VRB01KT 1300 0400E R16/0900U R29/1100N BCFG VV001 08/07 Q1018 TEMPO 2000 BKN003
  • 230750Z 09002KT 0350 R16/0275N R29/0400N BCFG VV001 07/07 Q1018 TEMPO 0600 BKN003

TAF AMD TAF LOWW
Valid from the 23 at 09:00 until the 24 at 15:00 UTC


230913Z 2309/2415 VRB03KT 4000 BKN006 TX16/2413Z TN08/2309Z
TEMPO 2309/2311 2000 BCFG BKN004
PROB40 2314/2318 SCT012
PROB40
TEMPO 2318/2320 0800 FG BKN002
BECMG 2320/2322 0500 FG BKN001
TEMPO 2402/2405 1500 -SHRA SCT002 OVC040
FM240500 29008KT 9999 BKN050
TEMPO 2405/2415 -RA



MET'MAP, your aeronautical weather chart ! - Copyright ORBIFLY December 2007 - Disclaimer

ORBIFLY MET'MAP TEAM :

Programming & Development : Alexandra Zaïnal
Concept & original design : Baudouin d'Aumeries
Assistance for programming : Marc-Olivier Méhu
Technical & hardware support : Manuel Goepfert

Contact : metmap@orbifly.com




SOURCES & CREDITS :

   NOAA